• Join FlightAware (Why Join?)
  • Login
  • US Flag 
11:42AM EST


 

Airport Tracker/Info


-or-


 

Live Flight TrackerFlight Track Log ✈ AWI3688 ✈ 10-May-2013 ✈ KPHL - KALB

Flight Track Log - Related Links

Times and Time Zones

All times are in EDT time to prevent confusion due to time zone crossing. See the AWI3688 flight status page for this flight to view local times or setup timezone preferences in your user account.

Time Position Orientation Groundspeed Altitude Reporting Facility
EDT Latitude Longitude Course Direction KTS MPH feet Rate Location/Type
02:35PM 39.8500 -75.2833 37° Northeast 165 190 900  Level Philadelphia TRACON
02:37PM 39.7833 -75.3667 224° Southwest 200 230 5,300 2,520 Climbing Philadelphia TRACON
02:38PM 39.8167 -74.9055 90° East  Level FlightAware Approximate
02:38PM 39.7333 -75.3333 153° Southeast 245 282 8,000  Level Philadelphia TRACON
02:39PM 39.8020 -74.7930 105° East  Level FlightAware Approximate
02:39PM 39.7333 -75.2333 90° East 317 365 9,200  Level Philadelphia TRACON
02:40PM 39.7949 -74.6885 37° Northeast  Level FlightAware Approximate
02:40PM 39.7500 -75.1333 78° East 315 362 11,500  Level Philadelphia TRACON
02:41PM 39.8650 -74.6184 37° Northeast  Level FlightAware Approximate
02:42PM 39.8222 -74.8442 72° East 389 448 12,000  Level New York Center
02:43PM 39.8119 -74.7192 96° East 371 427 13,400 1,380 Climbing New York Center
02:44PM 39.8800 -74.6175 49° Northeast 362 417 14,800 1,680 Climbing New York Center
02:45PM 39.9700 -74.5411 33° Northeast 349 402 16,800 1,560 Climbing New York Center
02:46PM 40.0603 -74.4539 36° Northeast 384 442 18,000 1,140 Climbing New York Center
02:47PM 40.1483 -74.3689 36° Northeast 400 460 19,100 1,020 Climbing New York Center
02:50PM 40.3469 -74.1744 37° Northeast 403 464 21,400 1,020 Climbing Boston Center
02:51PM 40.4419 -74.0842 36° Northeast 414 476 22,400 900 Climbing Boston Center
02:52PM 40.5475 -73.9858 35° Northeast 414 476 23,300 780 Climbing Boston Center
02:53PM 40.6447 -73.8897 37° Northeast 425 489 24,000 300 Climbing Boston Center
02:54PM 40.7439 -73.7933 36° Northeast 425 489 24,000  Level Boston Center
02:55PM 40.8472 -73.6911 37° Northeast 439 505 24,000  Level Boston Center
02:56PM 40.9147 -73.6156 40° Northeast 450 518 24,000 -540 Level Boston Center
02:57PM 41.0633 -73.5414 21° North 442 509 23,000 -1,020 Descending Boston Center
02:58PM 41.1764 -73.4853 20° North 435 501 22,000 -1,260 Descending Boston Center
02:59PM 41.2933 -73.4678 North 419 482 20,500 -1,320 Descending Boston Center
03:00PM 41.4119 -73.4781 356° North 406 467 18,900 -1,500 Descending Boston Center
03:01PM 41.5453 -73.4886 357° North 397 457 17,000 -1,800 Descending Boston Center
03:02PM 41.6619 -73.4961 357° North 392 451 15,400 -1,500 Descending Boston Center
03:03PM 41.7556 -73.5031 357° North 379 436 14,000 -1,440 Descending Boston Center
03:04PM 41.8494 -73.5075 358° North 379 436 12,600 -1,620 Descending Boston Center
03:04PM 41.9181 -73.5114 358° North 355 409 11,600 -1,440 Descending Boston Center
03:05PM 41.9453 -73.5147 355° North 360 414 11,200 -420 Descending Boston Center
03:06PM 42.0700 -73.5253 356° North 337 388 11,000 -180 Descending Boston Center
03:06PM 42.0764 -73.5253 360° North 340 391 11,000  Level Boston Center
03:07PM 42.1594 -73.5464 349° North 331 381 11,000  Level Boston Center
03:07PM 42.1844 -73.5553 345° North 330 380 11,000 -120 Level Boston Center
03:08PM 42.2489 -73.5703 350° North 335 386 10,900 -420 Descending Boston Center
03:08PM 42.2739 -73.5764 350° North 330 380 10,600 -1,620 Descending Boston Center
03:09PM 42.3361 -73.5944 348° North 285 328 9,300 -1,620 Descending Boston Center
03:10PM 42.4131 -73.6128 350° North 274 315 7,800 -1,500 Descending Boston Center
03:11PM 42.4903 -73.6169 358° North 276 318 6,300 -1,500 Descending Boston Center
03:12PM 42.5694 -73.6186 359° North 267 307 4,700 -1,500 Descending Boston Center
03:13PM 42.6317 -73.6450 343° North 267 307 3,300 -900 Descending Boston Center
03:14PM 42.6936 -73.7000 327° Northwest 262 302 3,000 -300 Descending Boston Center